sensor_id;sensor_type;location;lat;lon;timestamp;P1;durP1;ratioP1;P2;durP2;ratioP2
6663;SDS011;58749;48.022;10.922;2022-10-16T00:01:08;3.70;;;1.70;;
6663;SDS011;58749;48.022;10.922;2022-10-16T00:03:37;2.95;;;1.60;;
6663;SDS011;58749;48.022;10.922;2022-10-16T00:06:06;2.30;;;1.42;;
6663;SDS011;58749;48.022;10.922;2022-10-16T00:08:35;2.13;;;1.55;;
6663;SDS011;58749;48.022;10.922;2022-10-16T00:11:04;3.13;;;1.35;;
6663;SDS011;58749;48.022;10.922;2022-10-16T00:13:36;3.85;;;1.30;;
6663;SDS011;58749;48.022;10.922;2022-10-16T00:16:05;1.77;;;1.17;;
6663;SDS011;58749;48.022;10.922;2022-10-16T00:18:34;4.55;;;1.83;;
6663;SDS011;58749;48.022;10.922;2022-10-16T00:21:03;1.92;;;1.20;;
6663;SDS011;58749;48.022;10.922;2022-10-16T00:23:32;2.60;;;1.42;;
6663;SDS011;58749;48.022;10.922;2022-10-16T00:26:01;1.77;;;1.30;;
6663;SDS011;58749;48.022;10.922;2022-10-16T00:28:31;1.85;;;1.15;;
6663;SDS011;58749;48.022;10.922;2022-10-16T00:31:03;2.45;;;1.08;;
6663;SDS011;58749;48.022;10.922;2022-10-16T00:33:32;1.25;;;1.05;;
6663;SDS011;58749;48.022;10.922;2022-10-16T00:36:00;5.20;;;1.40;;
6663;SDS011;58749;48.022;10.922;2022-10-16T00:38:30;2.67;;;1.33;;
6663;SDS011;58749;48.022;10.922;2022-10-16T00:40:58;0.80;;;0.77;;
6663;SDS011;58749;48.022;10.922;2022-10-16T00:43:35;2.10;;;1.10;;
6663;SDS011;58749;48.022;10.922;2022-10-16T00:46:09;1.30;;;1.00;;
6663;SDS011;58749;48.022;10.922;2022-10-16T00:48:42;1.88;;;0.90;;
6663;SDS011;58749;48.022;10.922;2022-10-16T00:51:16;4.68;;;1.10;;
6663;SDS011;58749;48.022;10.922;2022-10-16T00:53:47;2.05;;;1.00;;
6663;SDS011;58749;48.022;10.922;2022-10-16T00:56:16;0.73;;;0.70;;
6663;SDS011;58749;48.022;10.922;2022-10-16T00:58:44;2.38;;;1.00;;
6663;SDS011;58749;48.022;10.922;2022-10-16T01:01:14;1.10;;;0.90;;
6663;SDS011;58749;48.022;10.922;2022-10-16T01:03:42;1.65;;;1.02;;
6663;SDS011;58749;48.022;10.922;2022-10-16T01:06:19;2.58;;;0.90;;
6663;SDS011;58749;48.022;10.922;2022-10-16T01:08:59;1.40;;;1.08;;
6663;SDS011;58749;48.022;10.922;2022-10-16T01:11:36;2.45;;;1.20;;
6663;SDS011;58749;48.022;10.922;2022-10-16T01:14:11;1.35;;;0.98;;
6663;SDS011;58749;48.022;10.922;2022-10-16T01:16:47;1.42;;;0.75;;
6663;SDS011;58749;48.022;10.922;2022-10-16T01:19:24;3.03;;;0.80;;
6663;SDS011;58749;48.022;10.922;2022-10-16T01:22:02;3.35;;;0.95;;
6663;SDS011;58749;48.022;10.922;2022-10-16T01:24:32;1.60;;;0.98;;
6663;SDS011;58749;48.022;10.922;2022-10-16T01:27:11;4.68;;;1.00;;
6663;SDS011;58749;48.022;10.922;2022-10-16T01:29:42;2.42;;;0.70;;
6663;SDS011;58749;48.022;10.922;2022-10-16T01:32:17;2.17;;;0.85;;
6663;SDS011;58749;48.022;10.922;2022-10-16T01:34:49;1.30;;;0.77;;
6663;SDS011;58749;48.022;10.922;2022-10-16T01:37:22;1.90;;;0.82;;
6663;SDS011;58749;48.022;10.922;2022-10-16T01:39:55;2.03;;;1.10;;
6663;SDS011;58749;48.022;10.922;2022-10-16T01:42:30;5.75;;;1.10;;
6663;SDS011;58749;48.022;10.922;2022-10-16T01:45:01;3.33;;;0.75;;
6663;SDS011;58749;48.022;10.922;2022-10-16T01:47:32;2.50;;;1.00;;
6663;SDS011;58749;48.022;10.922;2022-10-16T01:50:02;1.33;;;0.80;;
6663;SDS011;58749;48.022;10.922;2022-10-16T01:52:32;5.75;;;0.90;;
6663;SDS011;58749;48.022;10.922;2022-10-16T01:55:04;2.28;;;0.80;;
6663;SDS011;58749;48.022;10.922;2022-10-16T01:57:37;2.42;;;0.93;;
6663;SDS011;58749;48.022;10.922;2022-10-16T02:00:09;2.10;;;0.82;;
6663;SDS011;58749;48.022;10.922;2022-10-16T02:02:39;2.53;;;1.17;;
6663;SDS011;58749;48.022;10.922;2022-10-16T02:05:10;7.63;;;1.10;;
6663;SDS011;58749;48.022;10.922;2022-10-16T02:07:44;1.65;;;0.90;;
6663;SDS011;58749;48.022;10.922;2022-10-16T02:10:12;3.10;;;0.98;;
6663;SDS011;58749;48.022;10.922;2022-10-16T02:12:42;1.63;;;0.82;;
6663;SDS011;58749;48.022;10.922;2022-10-16T02:15:13;0.68;;;0.57;;
6663;SDS011;58749;48.022;10.922;2022-10-16T02:17:42;2.97;;;0.80;;
6663;SDS011;58749;48.022;10.922;2022-10-16T02:20:10;1.58;;;0.80;;
6663;SDS011;58749;48.022;10.922;2022-10-16T02:22:39;1.05;;;0.93;;
6663;SDS011;58749;48.022;10.922;2022-10-16T02:25:10;1.52;;;0.93;;
6663;SDS011;58749;48.022;10.922;2022-10-16T02:27:48;0.85;;;0.60;;
6663;SDS011;58749;48.022;10.922;2022-10-16T02:30:21;1.50;;;1.00;;
6663;SDS011;58749;48.022;10.922;2022-10-16T02:32:54;5.07;;;1.02;;
6663;SDS011;58749;48.022;10.922;2022-10-16T02:35:23;4.70;;;0.77;;
6663;SDS011;58749;48.022;10.922;2022-10-16T02:37:53;2.03;;;0.93;;
6663;SDS011;58749;48.022;10.922;2022-10-16T02:40:23;1.63;;;0.68;;
6663;SDS011;58749;48.022;10.922;2022-10-16T02:42:53;3.80;;;1.00;;
6663;SDS011;58749;48.022;10.922;2022-10-16T02:45:22;1.15;;;0.70;;
6663;SDS011;58749;48.022;10.922;2022-10-16T02:47:51;1.25;;;0.68;;
6663;SDS011;58749;48.022;10.922;2022-10-16T02:50:19;1.33;;;0.68;;
6663;SDS011;58749;48.022;10.922;2022-10-16T02:52:47;4.25;;;0.90;;
6663;SDS011;58749;48.022;10.922;2022-10-16T02:55:15;2.90;;;0.95;;
6663;SDS011;58749;48.022;10.922;2022-10-16T02:57:43;3.08;;;0.95;;
6663;SDS011;58749;48.022;10.922;2022-10-16T03:00:14;0.70;;;0.68;;
6663;SDS011;58749;48.022;10.922;2022-10-16T03:02:44;3.95;;;0.77;;
6663;SDS011;58749;48.022;10.922;2022-10-16T03:05:13;2.55;;;0.70;;
6663;SDS011;58749;48.022;10.922;2022-10-16T03:07:41;1.90;;;0.73;;
6663;SDS011;58749;48.022;10.922;2022-10-16T03:10:09;3.25;;;0.82;;
6663;SDS011;58749;48.022;10.922;2022-10-16T03:12:38;3.50;;;0.70;;
6663;SDS011;58749;48.022;10.922;2022-10-16T03:15:06;1.35;;;0.80;;
6663;SDS011;58749;48.022;10.922;2022-10-16T03:17:36;1.85;;;0.73;;
6663;SDS011;58749;48.022;10.922;2022-10-16T03:20:04;2.15;;;1.00;;
6663;SDS011;58749;48.022;10.922;2022-10-16T03:22:33;1.90;;;1.10;;
6663;SDS011;58749;48.022;10.922;2022-10-16T03:25:21;1.15;;;0.73;;
6663;SDS011;58749;48.022;10.922;2022-10-16T03:27:49;1.10;;;0.70;;
6663;SDS011;58749;48.022;10.922;2022-10-16T03:30:17;2.40;;;1.08;;
6663;SDS011;58749;48.022;10.922;2022-10-16T03:32:46;0.98;;;0.63;;
6663;SDS011;58749;48.022;10.922;2022-10-16T03:35:14;4.97;;;0.70;;
6663;SDS011;58749;48.022;10.922;2022-10-16T03:37:42;1.77;;;0.70;;
6663;SDS011;58749;48.022;10.922;2022-10-16T03:40:10;0.50;;;0.47;;
6663;SDS011;58749;48.022;10.922;2022-10-16T03:42:39;3.70;;;0.95;;
6663;SDS011;58749;48.022;10.922;2022-10-16T03:45:07;3.05;;;0.70;;
6663;SDS011;58749;48.022;10.922;2022-10-16T03:47:36;3.13;;;1.00;;
6663;SDS011;58749;48.022;10.922;2022-10-16T03:50:06;3.00;;;1.10;;
6663;SDS011;58749;48.022;10.922;2022-10-16T03:52:34;1.48;;;0.85;;
6663;SDS011;58749;48.022;10.922;2022-10-16T03:55:02;2.47;;;1.00;;
6663;SDS011;58749;48.022;10.922;2022-10-16T03:57:31;2.45;;;0.90;;
6663;SDS011;58749;48.022;10.922;2022-10-16T03:59:59;1.30;;;1.00;;
6663;SDS011;58749;48.022;10.922;2022-10-16T04:02:27;1.50;;;0.82;;
6663;SDS011;58749;48.022;10.922;2022-10-16T04:04:55;5.97;;;0.93;;
6663;SDS011;58749;48.022;10.922;2022-10-16T04:07:25;1.63;;;1.05;;
6663;SDS011;58749;48.022;10.922;2022-10-16T04:09:53;3.88;;;0.90;;
6663;SDS011;58749;48.022;10.922;2022-10-16T04:12:21;2.38;;;1.10;;
6663;SDS011;58749;48.022;10.922;2022-10-16T04:14:50;5.55;;;0.73;;
6663;SDS011;58749;48.022;10.922;2022-10-16T04:17:18;2.00;;;0.98;;
6663;SDS011;58749;48.022;10.922;2022-10-16T04:19:46;2.00;;;0.80;;
6663;SDS011;58749;48.022;10.922;2022-10-16T04:22:14;2.35;;;1.00;;
6663;SDS011;58749;48.022;10.922;2022-10-16T04:24:43;1.42;;;0.75;;
6663;SDS011;58749;48.022;10.922;2022-10-16T04:27:11;2.63;;;0.70;;
6663;SDS011;58749;48.022;10.922;2022-10-16T04:29:39;2.33;;;0.82;;
6663;SDS011;58749;48.022;10.922;2022-10-16T04:32:07;2.85;;;0.98;;
6663;SDS011;58749;48.022;10.922;2022-10-16T04:34:36;4.18;;;1.67;;
6663;SDS011;58749;48.022;10.922;2022-10-16T04:37:06;1.52;;;1.13;;
6663;SDS011;58749;48.022;10.922;2022-10-16T04:39:34;2.17;;;0.70;;
6663;SDS011;58749;48.022;10.922;2022-10-16T04:42:04;2.75;;;1.00;;
6663;SDS011;58749;48.022;10.922;2022-10-16T04:44:32;2.22;;;0.90;;
6663;SDS011;58749;48.022;10.922;2022-10-16T04:47:00;1.77;;;1.08;;
6663;SDS011;58749;48.022;10.922;2022-10-16T04:49:28;1.80;;;1.13;;
6663;SDS011;58749;48.022;10.922;2022-10-16T04:51:56;1.83;;;1.33;;
6663;SDS011;58749;48.022;10.922;2022-10-16T04:54:24;1.05;;;0.85;;
6663;SDS011;58749;48.022;10.922;2022-10-16T04:56:52;2.38;;;1.40;;
6663;SDS011;58749;48.022;10.922;2022-10-16T04:59:41;3.42;;;1.30;;
6663;SDS011;58749;48.022;10.922;2022-10-16T05:02:10;4.72;;;1.23;;
6663;SDS011;58749;48.022;10.922;2022-10-16T05:04:38;3.60;;;1.58;;
6663;SDS011;58749;48.022;10.922;2022-10-16T05:07:06;1.90;;;1.30;;
6663;SDS011;58749;48.022;10.922;2022-10-16T05:09:34;2.58;;;0.80;;
6663;SDS011;58749;48.022;10.922;2022-10-16T05:12:02;0.80;;;0.80;;
6663;SDS011;58749;48.022;10.922;2022-10-16T05:14:30;1.13;;;1.02;;
6663;SDS011;58749;48.022;10.922;2022-10-16T05:17:00;3.70;;;1.33;;
6663;SDS011;58749;48.022;10.922;2022-10-16T05:19:28;1.88;;;1.08;;
6663;SDS011;58749;48.022;10.922;2022-10-16T05:21:56;1.30;;;1.10;;
6663;SDS011;58749;48.022;10.922;2022-10-16T05:24:24;1.38;;;0.98;;
6663;SDS011;58749;48.022;10.922;2022-10-16T05:26:53;4.75;;;1.15;;
6663;SDS011;58749;48.022;10.922;2022-10-16T05:29:21;8.02;;;1.50;;
6663;SDS011;58749;48.022;10.922;2022-10-16T05:31:50;2.50;;;0.98;;
6663;SDS011;58749;48.022;10.922;2022-10-16T05:34:20;1.02;;;0.73;;
6663;SDS011;58749;48.022;10.922;2022-10-16T05:36:49;0.90;;;0.80;;
6663;SDS011;58749;48.022;10.922;2022-10-16T05:39:17;1.05;;;0.80;;
6663;SDS011;58749;48.022;10.922;2022-10-16T05:41:45;2.40;;;1.00;;
6663;SDS011;58749;48.022;10.922;2022-10-16T05:44:13;2.33;;;1.10;;
6663;SDS011;58749;48.022;10.922;2022-10-16T05:46:41;4.30;;;1.27;;
6663;SDS011;58749;48.022;10.922;2022-10-16T05:49:09;2.33;;;1.25;;
6663;SDS011;58749;48.022;10.922;2022-10-16T05:51:39;1.98;;;1.30;;
6663;SDS011;58749;48.022;10.922;2022-10-16T05:54:07;2.40;;;1.30;;
6663;SDS011;58749;48.022;10.922;2022-10-16T05:56:36;5.55;;;1.30;;
6663;SDS011;58749;48.022;10.922;2022-10-16T05:59:04;2.97;;;0.90;;
6663;SDS011;58749;48.022;10.922;2022-10-16T06:01:32;2.78;;;1.13;;
6663;SDS011;58749;48.022;10.922;2022-10-16T06:04:01;1.77;;;0.90;;
6663;SDS011;58749;48.022;10.922;2022-10-16T06:06:29;1.90;;;1.27;;
6663;SDS011;58749;48.022;10.922;2022-10-16T06:08:59;1.10;;;1.00;;
6663;SDS011;58749;48.022;10.922;2022-10-16T06:11:27;4.85;;;1.02;;
6663;SDS011;58749;48.022;10.922;2022-10-16T06:13:56;1.70;;;1.00;;
6663;SDS011;58749;48.022;10.922;2022-10-16T06:16:28;1.27;;;1.00;;
6663;SDS011;58749;48.022;10.922;2022-10-16T06:18:56;1.00;;;0.80;;
6663;SDS011;58749;48.022;10.922;2022-10-16T06:21:26;1.65;;;1.15;;
6663;SDS011;58749;48.022;10.922;2022-10-16T06:23:55;1.65;;;1.08;;
6663;SDS011;58749;48.022;10.922;2022-10-16T06:26:26;1.80;;;1.30;;
6663;SDS011;58749;48.022;10.922;2022-10-16T06:28:56;2.92;;;1.35;;
6663;SDS011;58749;48.022;10.922;2022-10-16T06:31:27;2.10;;;1.27;;
6663;SDS011;58749;48.022;10.922;2022-10-16T06:33:57;4.90;;;0.90;;
6663;SDS011;58749;48.022;10.922;2022-10-16T06:36:25;1.55;;;0.90;;
6663;SDS011;58749;48.022;10.922;2022-10-16T06:38:54;4.35;;;0.70;;
6663;SDS011;58749;48.022;10.922;2022-10-16T06:41:22;1.70;;;0.95;;
6663;SDS011;58749;48.022;10.922;2022-10-16T06:43:51;0.90;;;0.75;;
6663;SDS011;58749;48.022;10.922;2022-10-16T06:46:20;2.78;;;0.90;;
6663;SDS011;58749;48.022;10.922;2022-10-16T06:48:50;3.45;;;1.00;;
6663;SDS011;58749;48.022;10.922;2022-10-16T06:51:19;3.35;;;0.88;;
6663;SDS011;58749;48.022;10.922;2022-10-16T06:53:49;3.33;;;1.02;;
6663;SDS011;58749;48.022;10.922;2022-10-16T06:56:29;3.17;;;0.98;;
6663;SDS011;58749;48.022;10.922;2022-10-16T06:59:00;3.78;;;1.00;;
6663;SDS011;58749;48.022;10.922;2022-10-16T07:01:28;0.90;;;0.90;;
6663;SDS011;58749;48.022;10.922;2022-10-16T07:04:15;1.00;;;0.88;;
6663;SDS011;58749;48.022;10.922;2022-10-16T07:06:45;0.73;;;0.70;;
6663;SDS011;58749;48.022;10.922;2022-10-16T07:09:13;2.78;;;1.02;;
6663;SDS011;58749;48.022;10.922;2022-10-16T07:11:41;3.30;;;0.95;;
6663;SDS011;58749;48.022;10.922;2022-10-16T07:14:14;1.63;;;1.00;;
6663;SDS011;58749;48.022;10.922;2022-10-16T07:16:44;2.50;;;1.08;;
6663;SDS011;58749;48.022;10.922;2022-10-16T07:19:12;1.60;;;0.73;;
6663;SDS011;58749;48.022;10.922;2022-10-16T07:21:41;1.63;;;0.70;;
6663;SDS011;58749;48.022;10.922;2022-10-16T07:24:10;0.57;;;0.57;;
6663;SDS011;58749;48.022;10.922;2022-10-16T07:26:40;1.60;;;0.70;;
6663;SDS011;58749;48.022;10.922;2022-10-16T07:29:11;2.75;;;0.90;;
6663;SDS011;58749;48.022;10.922;2022-10-16T07:31:42;1.00;;;0.90;;
6663;SDS011;58749;48.022;10.922;2022-10-16T07:34:11;1.83;;;0.73;;
6663;SDS011;58749;48.022;10.922;2022-10-16T07:36:40;1.48;;;0.70;;
6663;SDS011;58749;48.022;10.922;2022-10-16T07:39:08;1.10;;;0.70;;
6663;SDS011;58749;48.022;10.922;2022-10-16T07:41:36;1.27;;;0.70;;
6663;SDS011;58749;48.022;10.922;2022-10-16T07:44:04;2.90;;;0.88;;
6663;SDS011;58749;48.022;10.922;2022-10-16T07:46:34;3.45;;;1.00;;
6663;SDS011;58749;48.022;10.922;2022-10-16T07:49:03;2.53;;;1.20;;
6663;SDS011;58749;48.022;10.922;2022-10-16T07:51:31;2.67;;;1.10;;
6663;SDS011;58749;48.022;10.922;2022-10-16T07:53:59;2.45;;;1.00;;
6663;SDS011;58749;48.022;10.922;2022-10-16T07:56:27;2.53;;;1.23;;
6663;SDS011;58749;48.022;10.922;2022-10-16T07:58:58;2.33;;;1.23;;
6663;SDS011;58749;48.022;10.922;2022-10-16T08:01:26;3.95;;;0.95;;
6663;SDS011;58749;48.022;10.922;2022-10-16T08:03:55;2.03;;;1.10;;
6663;SDS011;58749;48.022;10.922;2022-10-16T08:06:24;2.65;;;1.25;;
6663;SDS011;58749;48.022;10.922;2022-10-16T08:08:53;5.55;;;1.20;;
6663;SDS011;58749;48.022;10.922;2022-10-16T08:11:22;1.60;;;1.23;;
6663;SDS011;58749;48.022;10.922;2022-10-16T08:13:50;1.10;;;0.80;;
6663;SDS011;58749;48.022;10.922;2022-10-16T08:16:18;2.72;;;1.27;;
6663;SDS011;58749;48.022;10.922;2022-10-16T08:18:46;2.95;;;1.13;;
6663;SDS011;58749;48.022;10.922;2022-10-16T08:21:17;1.45;;;0.90;;
6663;SDS011;58749;48.022;10.922;2022-10-16T08:23:47;2.47;;;1.13;;
6663;SDS011;58749;48.022;10.922;2022-10-16T08:26:23;3.22;;;0.93;;
6663;SDS011;58749;48.022;10.922;2022-10-16T08:28:52;1.52;;;1.00;;
6663;SDS011;58749;48.022;10.922;2022-10-16T08:31:20;2.47;;;0.95;;
6663;SDS011;58749;48.022;10.922;2022-10-16T08:33:48;1.92;;;0.70;;
6663;SDS011;58749;48.022;10.922;2022-10-16T08:36:19;4.65;;;0.90;;
6663;SDS011;58749;48.022;10.922;2022-10-16T08:38:48;3.95;;;1.00;;
6663;SDS011;58749;48.022;10.922;2022-10-16T08:41:30;2.50;;;0.80;;
6663;SDS011;58749;48.022;10.922;2022-10-16T08:47:17;2.85;;;1.10;;
6663;SDS011;58749;48.022;10.922;2022-10-16T08:49:51;5.17;;;0.90;;
6663;SDS011;58749;48.022;10.922;2022-10-16T08:52:28;1.17;;;0.73;;
6663;SDS011;58749;48.022;10.922;2022-10-16T08:54:58;1.20;;;0.80;;
6663;SDS011;58749;48.022;10.922;2022-10-16T08:57:26;1.33;;;0.98;;
6663;SDS011;58749;48.022;10.922;2022-10-16T08:59:54;4.53;;;1.15;;
6663;SDS011;58749;48.022;10.922;2022-10-16T09:02:29;6.90;;;1.42;;
6663;SDS011;58749;48.022;10.922;2022-10-16T09:05:02;1.10;;;0.77;;
6663;SDS011;58749;48.022;10.922;2022-10-16T09:07:51;3.90;;;0.80;;
6663;SDS011;58749;48.022;10.922;2022-10-16T09:10:38;11.98;;;1.33;;
6663;SDS011;58749;48.022;10.922;2022-10-16T09:13:17;0.70;;;0.65;;
6663;SDS011;58749;48.022;10.922;2022-10-16T09:15:52;1.58;;;0.63;;
6663;SDS011;58749;48.022;10.922;2022-10-16T09:18:26;2.67;;;0.60;;
6663;SDS011;58749;48.022;10.922;2022-10-16T09:21:01;2.53;;;0.70;;
6663;SDS011;58749;48.022;10.922;2022-10-16T09:23:38;1.50;;;0.70;;
6663;SDS011;58749;48.022;10.922;2022-10-16T09:26:09;2.17;;;0.60;;
6663;SDS011;58749;48.022;10.922;2022-10-16T09:28:38;1.37;;;0.90;;
6663;SDS011;58749;48.022;10.922;2022-10-16T09:31:08;3.25;;;0.85;;
6663;SDS011;58749;48.022;10.922;2022-10-16T09:33:50;3.03;;;0.73;;
6663;SDS011;58749;48.022;10.922;2022-10-16T09:36:21;1.98;;;0.75;;
6663;SDS011;58749;48.022;10.922;2022-10-16T09:39:00;1.08;;;0.90;;
6663;SDS011;58749;48.022;10.922;2022-10-16T09:41:29;4.70;;;1.10;;
6663;SDS011;58749;48.022;10.922;2022-10-16T09:43:57;2.65;;;0.52;;
6663;SDS011;58749;48.022;10.922;2022-10-16T09:46:28;1.73;;;0.60;;
6663;SDS011;58749;48.022;10.922;2022-10-16T09:48:58;1.67;;;0.65;;
6663;SDS011;58749;48.022;10.922;2022-10-16T09:51:28;1.65;;;0.70;;
6663;SDS011;58749;48.022;10.922;2022-10-16T09:54:00;1.40;;;0.60;;
6663;SDS011;58749;48.022;10.922;2022-10-16T09:56:39;1.05;;;0.75;;
6663;SDS011;58749;48.022;10.922;2022-10-16T09:59:10;2.38;;;0.63;;
6663;SDS011;58749;48.022;10.922;2022-10-16T10:01:40;2.28;;;0.73;;
6663;SDS011;58749;48.022;10.922;2022-10-16T10:04:10;0.98;;;0.60;;
6663;SDS011;58749;48.022;10.922;2022-10-16T10:06:41;2.58;;;0.60;;
6663;SDS011;58749;48.022;10.922;2022-10-16T10:09:20;2.20;;;0.70;;
6663;SDS011;58749;48.022;10.922;2022-10-16T10:11:50;4.97;;;1.25;;
6663;SDS011;58749;48.022;10.922;2022-10-16T10:14:21;1.08;;;0.73;;
6663;SDS011;58749;48.022;10.922;2022-10-16T10:17:06;10.20;;;1.10;;
6663;SDS011;58749;48.022;10.922;2022-10-16T10:19:38;3.63;;;0.75;;
6663;SDS011;58749;48.022;10.922;2022-10-16T10:22:18;3.47;;;0.65;;
6663;SDS011;58749;48.022;10.922;2022-10-16T10:24:57;2.40;;;0.95;;
6663;SDS011;58749;48.022;10.922;2022-10-16T10:28:01;1.48;;;0.63;;
6663;SDS011;58749;48.022;10.922;2022-10-16T10:30:41;5.10;;;0.70;;
6663;SDS011;58749;48.022;10.922;2022-10-16T10:33:18;5.93;;;1.02;;
6663;SDS011;58749;48.022;10.922;2022-10-16T10:35:59;1.48;;;0.47;;
6663;SDS011;58749;48.022;10.922;2022-10-16T10:38:38;1.80;;;0.73;;
6663;SDS011;58749;48.022;10.922;2022-10-16T10:41:17;2.33;;;0.60;;
6663;SDS011;58749;48.022;10.922;2022-10-16T10:43:59;3.22;;;0.68;;
6663;SDS011;58749;48.022;10.922;2022-10-16T10:46:34;3.40;;;0.70;;
6663;SDS011;58749;48.022;10.922;2022-10-16T10:49:15;2.25;;;0.88;;
6663;SDS011;58749;48.022;10.922;2022-10-16T10:52:02;0.68;;;0.60;;
6663;SDS011;58749;48.022;10.922;2022-10-16T10:54:46;3.58;;;1.00;;
6663;SDS011;58749;48.022;10.922;2022-10-16T10:57:25;4.53;;;0.65;;
6663;SDS011;58749;48.022;10.922;2022-10-16T11:02:45;1.67;;;0.55;;
6663;SDS011;58749;48.022;10.922;2022-10-16T11:05:33;2.28;;;0.60;;
6663;SDS011;58749;48.022;10.922;2022-10-16T11:08:10;0.50;;;0.40;;
6663;SDS011;58749;48.022;10.922;2022-10-16T11:10:49;1.52;;;0.50;;
6663;SDS011;58749;48.022;10.922;2022-10-16T11:13:24;0.40;;;0.40;;
6663;SDS011;58749;48.022;10.922;2022-10-16T11:15:58;0.82;;;0.40;;
6663;SDS011;58749;48.022;10.922;2022-10-16T11:18:30;0.68;;;0.35;;
6663;SDS011;58749;48.022;10.922;2022-10-16T11:21:07;3.65;;;0.40;;
6663;SDS011;58749;48.022;10.922;2022-10-16T11:23:38;0.60;;;0.40;;
6663;SDS011;58749;48.022;10.922;2022-10-16T11:26:13;2.65;;;0.50;;
6663;SDS011;58749;48.022;10.922;2022-10-16T11:28:48;1.25;;;0.40;;
6663;SDS011;58749;48.022;10.922;2022-10-16T11:31:19;0.70;;;0.38;;
6663;SDS011;58749;48.022;10.922;2022-10-16T11:33:57;3.85;;;0.40;;
6663;SDS011;58749;48.022;10.922;2022-10-16T11:36:32;4.47;;;0.50;;
6663;SDS011;58749;48.022;10.922;2022-10-16T11:39:07;3.17;;;0.80;;
6663;SDS011;58749;48.022;10.922;2022-10-16T11:41:46;0.43;;;0.40;;
6663;SDS011;58749;48.022;10.922;2022-10-16T11:44:20;0.93;;;0.38;;
6663;SDS011;58749;48.022;10.922;2022-10-16T11:47:03;1.45;;;0.60;;
6663;SDS011;58749;48.022;10.922;2022-10-16T11:50:01;1.20;;;0.40;;
6663;SDS011;58749;48.022;10.922;2022-10-16T11:52:33;1.08;;;0.40;;
6663;SDS011;58749;48.022;10.922;2022-10-16T11:55:12;0.65;;;0.60;;
6663;SDS011;58749;48.022;10.922;2022-10-16T11:57:44;0.50;;;0.50;;
6663;SDS011;58749;48.022;10.922;2022-10-16T12:00:20;0.45;;;0.30;;
6663;SDS011;58749;48.022;10.922;2022-10-16T12:02:57;1.58;;;0.40;;
6663;SDS011;58749;48.022;10.922;2022-10-16T12:05:33;0.95;;;0.50;;
6663;SDS011;58749;48.022;10.922;2022-10-16T12:08:14;0.95;;;0.43;;
6663;SDS011;58749;48.022;10.922;2022-10-16T12:10:44;0.30;;;0.30;;
6663;SDS011;58749;48.022;10.922;2022-10-16T12:16:05;1.52;;;0.40;;
6663;SDS011;58749;48.022;10.922;2022-10-16T12:18:46;1.10;;;0.55;;
6663;SDS011;58749;48.022;10.922;2022-10-16T12:21:15;1.50;;;0.50;;
6663;SDS011;58749;48.022;10.922;2022-10-16T12:23:49;1.45;;;0.60;;
6663;SDS011;58749;48.022;10.922;2022-10-16T12:26:25;1.45;;;0.80;;
6663;SDS011;58749;48.022;10.922;2022-10-16T12:28:54;3.88;;;0.68;;
6663;SDS011;58749;48.022;10.922;2022-10-16T12:31:24;1.23;;;0.60;;
6663;SDS011;58749;48.022;10.922;2022-10-16T12:34:23;2.40;;;0.52;;
6663;SDS011;58749;48.022;10.922;2022-10-16T12:36:56;1.92;;;0.68;;
6663;SDS011;58749;48.022;10.922;2022-10-16T12:39:37;2.30;;;0.75;;
6663;SDS011;58749;48.022;10.922;2022-10-16T12:42:17;0.30;;;0.30;;
6663;SDS011;58749;48.022;10.922;2022-10-16T12:44:48;3.85;;;0.40;;
6663;SDS011;58749;48.022;10.922;2022-10-16T12:47:22;1.13;;;0.68;;
6663;SDS011;58749;48.022;10.922;2022-10-16T12:49:52;1.70;;;0.40;;
6663;SDS011;58749;48.022;10.922;2022-10-16T12:52:28;1.15;;;0.50;;
6663;SDS011;58749;48.022;10.922;2022-10-16T12:55:02;0.43;;;0.32;;
6663;SDS011;58749;48.022;10.922;2022-10-16T12:57:38;1.38;;;0.60;;
6663;SDS011;58749;48.022;10.922;2022-10-16T13:00:17;0.80;;;0.50;;
6663;SDS011;58749;48.022;10.922;2022-10-16T13:05:52;1.55;;;1.00;;
6663;SDS011;58749;48.022;10.922;2022-10-16T13:08:36;2.05;;;0.60;;
6663;SDS011;58749;48.022;10.922;2022-10-16T13:11:14;1.80;;;0.40;;
6663;SDS011;58749;48.022;10.922;2022-10-16T13:16:54;0.63;;;0.60;;
6663;SDS011;58749;48.022;10.922;2022-10-16T13:19:30;0.98;;;0.40;;
6663;SDS011;58749;48.022;10.922;2022-10-16T13:22:05;1.30;;;0.63;;
6663;SDS011;58749;48.022;10.922;2022-10-16T13:24:42;0.60;;;0.30;;
6663;SDS011;58749;48.022;10.922;2022-10-16T13:27:23;1.92;;;0.40;;
6663;SDS011;58749;48.022;10.922;2022-10-16T13:30:02;1.25;;;0.63;;
6663;SDS011;58749;48.022;10.922;2022-10-16T13:32:39;2.65;;;0.57;;
6663;SDS011;58749;48.022;10.922;2022-10-16T13:35:22;0.70;;;0.45;;
6663;SDS011;58749;48.022;10.922;2022-10-16T13:38:02;2.05;;;0.47;;
6663;SDS011;58749;48.022;10.922;2022-10-16T13:40:31;1.75;;;0.45;;
6663;SDS011;58749;48.022;10.922;2022-10-16T13:43:00;2.95;;;0.70;;
6663;SDS011;58749;48.022;10.922;2022-10-16T13:45:29;0.77;;;0.40;;
6663;SDS011;58749;48.022;10.922;2022-10-16T13:48:03;0.60;;;0.40;;
6663;SDS011;58749;48.022;10.922;2022-10-16T13:50:33;0.63;;;0.50;;
6663;SDS011;58749;48.022;10.922;2022-10-16T13:53:05;0.63;;;0.40;;
6663;SDS011;58749;48.022;10.922;2022-10-16T13:55:33;0.77;;;0.57;;
6663;SDS011;58749;48.022;10.922;2022-10-16T13:58:05;1.20;;;0.70;;
6663;SDS011;58749;48.022;10.922;2022-10-16T14:00:34;2.40;;;0.55;;
6663;SDS011;58749;48.022;10.922;2022-10-16T14:03:04;0.65;;;0.55;;
6663;SDS011;58749;48.022;10.922;2022-10-16T14:05:41;0.22;;;0.22;;
6663;SDS011;58749;48.022;10.922;2022-10-16T14:08:12;1.40;;;0.90;;
6663;SDS011;58749;48.022;10.922;2022-10-16T14:10:40;0.90;;;0.55;;
6663;SDS011;58749;48.022;10.922;2022-10-16T14:13:13;1.33;;;0.82;;
6663;SDS011;58749;48.022;10.922;2022-10-16T14:15:46;1.67;;;0.70;;
6663;SDS011;58749;48.022;10.922;2022-10-16T14:18:17;1.88;;;0.60;;
6663;SDS011;58749;48.022;10.922;2022-10-16T14:20:49;2.70;;;0.65;;
6663;SDS011;58749;48.022;10.922;2022-10-16T14:23:19;1.30;;;0.90;;
6663;SDS011;58749;48.022;10.922;2022-10-16T14:25:48;1.33;;;0.90;;
6663;SDS011;58749;48.022;10.922;2022-10-16T14:28:17;0.95;;;0.65;;
6663;SDS011;58749;48.022;10.922;2022-10-16T14:30:51;2.15;;;0.90;;
6663;SDS011;58749;48.022;10.922;2022-10-16T14:33:21;2.05;;;1.50;;
6663;SDS011;58749;48.022;10.922;2022-10-16T14:36:02;9.20;;;6.25;;
6663;SDS011;58749;48.022;10.922;2022-10-16T14:38:32;10.63;;;4.93;;
6663;SDS011;58749;48.022;10.922;2022-10-16T14:41:00;125.25;;;101.32;;
6663;SDS011;58749;48.022;10.922;2022-10-16T14:43:31;75.50;;;58.10;;
6663;SDS011;58749;48.022;10.922;2022-10-16T14:46:02;58.45;;;34.38;;
6663;SDS011;58749;48.022;10.922;2022-10-16T14:48:33;19.30;;;12.90;;
6663;SDS011;58749;48.022;10.922;2022-10-16T14:51:04;6.30;;;2.30;;
6663;SDS011;58749;48.022;10.922;2022-10-16T14:53:36;4.88;;;1.45;;
6663;SDS011;58749;48.022;10.922;2022-10-16T14:56:05;2.10;;;1.00;;
6663;SDS011;58749;48.022;10.922;2022-10-16T14:58:34;2.28;;;1.17;;
6663;SDS011;58749;48.022;10.922;2022-10-16T15:01:02;6.70;;;4.25;;
6663;SDS011;58749;48.022;10.922;2022-10-16T15:03:33;14.63;;;10.05;;
6663;SDS011;58749;48.022;10.922;2022-10-16T15:06:02;80.95;;;60.40;;
6663;SDS011;58749;48.022;10.922;2022-10-16T15:08:30;47.90;;;32.25;;
6663;SDS011;58749;48.022;10.922;2022-10-16T15:10:58;29.50;;;21.63;;
6663;SDS011;58749;48.022;10.922;2022-10-16T15:13:26;15.73;;;11.93;;
6663;SDS011;58749;48.022;10.922;2022-10-16T15:15:54;9.07;;;5.60;;
6663;SDS011;58749;48.022;10.922;2022-10-16T15:18:22;4.95;;;2.30;;
6663;SDS011;58749;48.022;10.922;2022-10-16T15:20:51;8.63;;;5.22;;
6663;SDS011;58749;48.022;10.922;2022-10-16T15:23:21;2.75;;;1.45;;
6663;SDS011;58749;48.022;10.922;2022-10-16T15:25:53;2.05;;;0.70;;
6663;SDS011;58749;48.022;10.922;2022-10-16T15:28:23;7.82;;;2.55;;
6663;SDS011;58749;48.022;10.922;2022-10-16T15:30:52;6.30;;;3.47;;